sensor_id;sensor_type;location;lat;lon;timestamp;P1;durP1;ratioP1;P2;durP2;ratioP2
10309;SDS011;5200;43.236;27.986;2022-07-29T00:00:05;2.15;;;2.00;;
10309;SDS011;5200;43.236;27.986;2022-07-29T00:02:34;2.72;;;2.30;;
10309;SDS011;5200;43.236;27.986;2022-07-29T00:05:02;2.28;;;2.08;;
10309;SDS011;5200;43.236;27.986;2022-07-29T00:07:29;2.00;;;1.90;;
10309;SDS011;5200;43.236;27.986;2022-07-29T00:09:57;2.15;;;1.85;;
10309;SDS011;5200;43.236;27.986;2022-07-29T00:12:24;2.80;;;2.28;;
10309;SDS011;5200;43.236;27.986;2022-07-29T00:14:52;2.70;;;2.03;;
10309;SDS011;5200;43.236;27.986;2022-07-29T00:17:19;3.10;;;1.90;;
10309;SDS011;5200;43.236;27.986;2022-07-29T00:19:46;4.68;;;2.08;;
10309;SDS011;5200;43.236;27.986;2022-07-29T00:22:14;2.15;;;2.05;;
10309;SDS011;5200;43.236;27.986;2022-07-29T00:24:41;2.17;;;1.98;;
10309;SDS011;5200;43.236;27.986;2022-07-29T00:27:09;2.30;;;2.10;;
10309;SDS011;5200;43.236;27.986;2022-07-29T00:29:36;2.10;;;2.00;;
10309;SDS011;5200;43.236;27.986;2022-07-29T00:32:03;2.00;;;1.90;;
10309;SDS011;5200;43.236;27.986;2022-07-29T00:34:31;2.67;;;1.92;;
10309;SDS011;5200;43.236;27.986;2022-07-29T00:37:15;2.00;;;1.90;;
10309;SDS011;5200;43.236;27.986;2022-07-29T00:39:42;2.33;;;1.63;;
10309;SDS011;5200;43.236;27.986;2022-07-29T00:42:11;1.83;;;1.73;;
10309;SDS011;5200;43.236;27.986;2022-07-29T00:44:38;3.17;;;1.85;;
10309;SDS011;5200;43.236;27.986;2022-07-29T00:47:06;3.13;;;2.28;;
10309;SDS011;5200;43.236;27.986;2022-07-29T00:49:33;1.85;;;1.75;;
10309;SDS011;5200;43.236;27.986;2022-07-29T00:52:01;2.40;;;2.10;;
10309;SDS011;5200;43.236;27.986;2022-07-29T00:54:28;2.33;;;2.08;;
10309;SDS011;5200;43.236;27.986;2022-07-29T00:56:56;2.60;;;1.80;;
10309;SDS011;5200;43.236;27.986;2022-07-29T00:59:26;2.20;;;1.85;;
10309;SDS011;5200;43.236;27.986;2022-07-29T01:01:54;2.17;;;1.85;;
10309;SDS011;5200;43.236;27.986;2022-07-29T01:04:21;2.38;;;2.17;;
10309;SDS011;5200;43.236;27.986;2022-07-29T01:06:48;4.60;;;2.10;;
10309;SDS011;5200;43.236;27.986;2022-07-29T01:09:15;2.15;;;2.03;;
10309;SDS011;5200;43.236;27.986;2022-07-29T01:11:44;2.53;;;2.20;;
10309;SDS011;5200;43.236;27.986;2022-07-29T01:14:13;5.07;;;2.13;;
10309;SDS011;5200;43.236;27.986;2022-07-29T01:16:44;2.13;;;2.00;;
10309;SDS011;5200;43.236;27.986;2022-07-29T01:19:19;5.25;;;2.03;;
10309;SDS011;5200;43.236;27.986;2022-07-29T01:22:13;2.67;;;2.00;;
10309;SDS011;5200;43.236;27.986;2022-07-29T01:27:57;2.40;;;2.08;;
10309;SDS011;5200;43.236;27.986;2022-07-29T01:30:38;2.10;;;2.00;;
10309;SDS011;5200;43.236;27.986;2022-07-29T01:33:10;2.53;;;1.90;;
10309;SDS011;5200;43.236;27.986;2022-07-29T01:36:00;2.25;;;2.15;;
10309;SDS011;5200;43.236;27.986;2022-07-29T01:38:32;1.98;;;1.88;;
10309;SDS011;5200;43.236;27.986;2022-07-29T01:41:02;2.25;;;1.98;;
10309;SDS011;5200;43.236;27.986;2022-07-29T01:43:36;3.15;;;2.15;;
10309;SDS011;5200;43.236;27.986;2022-07-29T01:46:09;2.53;;;2.30;;
10309;SDS011;5200;43.236;27.986;2022-07-29T01:48:43;2.65;;;2.00;;
10309;SDS011;5200;43.236;27.986;2022-07-29T01:51:14;3.65;;;1.80;;
10309;SDS011;5200;43.236;27.986;2022-07-29T01:53:46;1.95;;;1.75;;
10309;SDS011;5200;43.236;27.986;2022-07-29T01:56:16;2.50;;;2.30;;
10309;SDS011;5200;43.236;27.986;2022-07-29T01:58:46;2.42;;;2.22;;
10309;SDS011;5200;43.236;27.986;2022-07-29T02:01:17;4.80;;;2.30;;
10309;SDS011;5200;43.236;27.986;2022-07-29T02:03:45;2.33;;;2.10;;
10309;SDS011;5200;43.236;27.986;2022-07-29T02:06:14;2.25;;;2.05;;
10309;SDS011;5200;43.236;27.986;2022-07-29T02:08:45;2.05;;;1.90;;
10309;SDS011;5200;43.236;27.986;2022-07-29T02:11:13;3.00;;;2.10;;
10309;SDS011;5200;43.236;27.986;2022-07-29T02:13:40;2.22;;;2.03;;
10309;SDS011;5200;43.236;27.986;2022-07-29T02:16:08;2.20;;;2.03;;
10309;SDS011;5200;43.236;27.986;2022-07-29T02:18:39;2.58;;;2.25;;
10309;SDS011;5200;43.236;27.986;2022-07-29T02:21:07;2.45;;;2.08;;
10309;SDS011;5200;43.236;27.986;2022-07-29T02:23:36;3.20;;;2.53;;
10309;SDS011;5200;43.236;27.986;2022-07-29T02:26:05;1.90;;;1.80;;
10309;SDS011;5200;43.236;27.986;2022-07-29T02:28:35;3.65;;;2.40;;
10309;SDS011;5200;43.236;27.986;2022-07-29T02:31:02;3.72;;;2.70;;
10309;SDS011;5200;43.236;27.986;2022-07-29T02:33:31;4.63;;;2.30;;
10309;SDS011;5200;43.236;27.986;2022-07-29T02:36:01;2.72;;;2.45;;
10309;SDS011;5200;43.236;27.986;2022-07-29T02:38:29;3.45;;;2.15;;
10309;SDS011;5200;43.236;27.986;2022-07-29T02:41:20;2.38;;;2.17;;
10309;SDS011;5200;43.236;27.986;2022-07-29T02:43:50;3.20;;;2.08;;
10309;SDS011;5200;43.236;27.986;2022-07-29T02:46:24;3.13;;;2.30;;
10309;SDS011;5200;43.236;27.986;2022-07-29T02:48:55;2.25;;;2.05;;
10309;SDS011;5200;43.236;27.986;2022-07-29T02:51:27;3.10;;;2.40;;
10309;SDS011;5200;43.236;27.986;2022-07-29T02:54:06;2.67;;;2.47;;
10309;SDS011;5200;43.236;27.986;2022-07-29T02:56:36;2.88;;;2.40;;
10309;SDS011;5200;43.236;27.986;2022-07-29T02:59:07;2.05;;;1.95;;
10309;SDS011;5200;43.236;27.986;2022-07-29T03:01:39;5.15;;;2.30;;
10309;SDS011;5200;43.236;27.986;2022-07-29T03:04:08;3.03;;;2.20;;
10309;SDS011;5200;43.236;27.986;2022-07-29T03:06:39;2.88;;;2.63;;
10309;SDS011;5200;43.236;27.986;2022-07-29T03:09:07;2.50;;;2.30;;
10309;SDS011;5200;43.236;27.986;2022-07-29T03:11:36;3.15;;;2.47;;
10309;SDS011;5200;43.236;27.986;2022-07-29T03:14:04;2.60;;;2.40;;
10309;SDS011;5200;43.236;27.986;2022-07-29T03:16:33;2.97;;;2.40;;
10309;SDS011;5200;43.236;27.986;2022-07-29T03:19:02;2.63;;;2.15;;
10309;SDS011;5200;43.236;27.986;2022-07-29T03:21:30;2.40;;;2.20;;
10309;SDS011;5200;43.236;27.986;2022-07-29T03:23:58;2.72;;;2.10;;
10309;SDS011;5200;43.236;27.986;2022-07-29T03:26:25;3.70;;;2.08;;
10309;SDS011;5200;43.236;27.986;2022-07-29T03:28:52;2.35;;;2.15;;
10309;SDS011;5200;43.236;27.986;2022-07-29T03:31:20;4.18;;;2.00;;
10309;SDS011;5200;43.236;27.986;2022-07-29T03:33:47;1.90;;;1.80;;
10309;SDS011;5200;43.236;27.986;2022-07-29T03:36:14;2.22;;;2.08;;
10309;SDS011;5200;43.236;27.986;2022-07-29T03:38:41;2.00;;;1.88;;
10309;SDS011;5200;43.236;27.986;2022-07-29T03:41:11;4.60;;;2.22;;
10309;SDS011;5200;43.236;27.986;2022-07-29T03:43:40;2.25;;;1.80;;
10309;SDS011;5200;43.236;27.986;2022-07-29T03:46:09;3.53;;;2.00;;
10309;SDS011;5200;43.236;27.986;2022-07-29T03:48:39;2.10;;;2.00;;
10309;SDS011;5200;43.236;27.986;2022-07-29T03:51:13;5.95;;;2.10;;
10309;SDS011;5200;43.236;27.986;2022-07-29T03:53:40;2.15;;;2.03;;
10309;SDS011;5200;43.236;27.986;2022-07-29T03:56:07;3.90;;;2.45;;
10309;SDS011;5200;43.236;27.986;2022-07-29T03:58:39;2.35;;;2.13;;
10309;SDS011;5200;43.236;27.986;2022-07-29T04:01:06;1.98;;;1.85;;
10309;SDS011;5200;43.236;27.986;2022-07-29T04:03:34;3.92;;;1.95;;
10309;SDS011;5200;43.236;27.986;2022-07-29T04:06:02;2.20;;;2.00;;
10309;SDS011;5200;43.236;27.986;2022-07-29T04:08:30;1.60;;;1.50;;
10309;SDS011;5200;43.236;27.986;2022-07-29T04:10:58;1.90;;;1.80;;
10309;SDS011;5200;43.236;27.986;2022-07-29T04:13:25;1.70;;;1.60;;
10309;SDS011;5200;43.236;27.986;2022-07-29T04:15:53;2.83;;;2.10;;
10309;SDS011;5200;43.236;27.986;2022-07-29T04:18:20;2.90;;;1.70;;
10309;SDS011;5200;43.236;27.986;2022-07-29T04:20:48;3.45;;;2.10;;
10309;SDS011;5200;43.236;27.986;2022-07-29T04:23:15;3.88;;;1.75;;
10309;SDS011;5200;43.236;27.986;2022-07-29T04:25:42;1.80;;;1.70;;
10309;SDS011;5200;43.236;27.986;2022-07-29T04:28:09;1.85;;;1.73;;
10309;SDS011;5200;43.236;27.986;2022-07-29T04:30:36;2.75;;;1.77;;
10309;SDS011;5200;43.236;27.986;2022-07-29T04:33:05;3.55;;;1.75;;
10309;SDS011;5200;43.236;27.986;2022-07-29T04:35:34;3.28;;;2.33;;
10309;SDS011;5200;43.236;27.986;2022-07-29T04:38:02;3.40;;;2.00;;
10309;SDS011;5200;43.236;27.986;2022-07-29T04:40:30;4.68;;;1.80;;
10309;SDS011;5200;43.236;27.986;2022-07-29T04:42:58;1.90;;;1.58;;
10309;SDS011;5200;43.236;27.986;2022-07-29T04:45:26;2.58;;;1.95;;
10309;SDS011;5200;43.236;27.986;2022-07-29T04:47:53;1.83;;;1.65;;
10309;SDS011;5200;43.236;27.986;2022-07-29T04:50:21;2.25;;;1.88;;
10309;SDS011;5200;43.236;27.986;2022-07-29T04:52:48;2.42;;;1.60;;
10309;SDS011;5200;43.236;27.986;2022-07-29T04:55:15;2.17;;;1.88;;
10309;SDS011;5200;43.236;27.986;2022-07-29T04:57:43;3.10;;;1.83;;
10309;SDS011;5200;43.236;27.986;2022-07-29T05:00:10;2.13;;;1.92;;
10309;SDS011;5200;43.236;27.986;2022-07-29T05:02:37;1.85;;;1.75;;
10309;SDS011;5200;43.236;27.986;2022-07-29T05:05:04;4.22;;;1.52;;
10309;SDS011;5200;43.236;27.986;2022-07-29T05:07:33;2.33;;;1.80;;
10309;SDS011;5200;43.236;27.986;2022-07-29T05:10:00;4.70;;;1.50;;
10309;SDS011;5200;43.236;27.986;2022-07-29T05:12:27;1.77;;;1.67;;
10309;SDS011;5200;43.236;27.986;2022-07-29T05:14:54;2.55;;;1.55;;
10309;SDS011;5200;43.236;27.986;2022-07-29T05:17:21;1.67;;;1.52;;
10309;SDS011;5200;43.236;27.986;2022-07-29T05:19:48;1.80;;;1.70;;
10309;SDS011;5200;43.236;27.986;2022-07-29T05:22:16;2.35;;;1.60;;
10309;SDS011;5200;43.236;27.986;2022-07-29T05:24:45;2.13;;;1.92;;
10309;SDS011;5200;43.236;27.986;2022-07-29T05:27:12;3.33;;;1.95;;
10309;SDS011;5200;43.236;27.986;2022-07-29T05:29:39;2.35;;;1.90;;
10309;SDS011;5200;43.236;27.986;2022-07-29T05:32:06;2.05;;;1.95;;
10309;SDS011;5200;43.236;27.986;2022-07-29T05:34:34;3.67;;;1.90;;
10309;SDS011;5200;43.236;27.986;2022-07-29T05:37:01;2.38;;;1.60;;
10309;SDS011;5200;43.236;27.986;2022-07-29T05:39:27;2.38;;;2.17;;
10309;SDS011;5200;43.236;27.986;2022-07-29T05:41:56;4.10;;;2.30;;
10309;SDS011;5200;43.236;27.986;2022-07-29T05:44:23;2.33;;;2.10;;
10309;SDS011;5200;43.236;27.986;2022-07-29T05:46:50;2.35;;;2.03;;
10309;SDS011;5200;43.236;27.986;2022-07-29T05:49:17;2.10;;;1.90;;
10309;SDS011;5200;43.236;27.986;2022-07-29T05:51:44;3.70;;;1.75;;
10309;SDS011;5200;43.236;27.986;2022-07-29T05:54:11;1.98;;;1.77;;
10309;SDS011;5200;43.236;27.986;2022-07-29T05:56:37;3.90;;;1.77;;
10309;SDS011;5200;43.236;27.986;2022-07-29T05:59:06;2.05;;;1.60;;
10309;SDS011;5200;43.236;27.986;2022-07-29T06:01:33;2.58;;;2.13;;
10309;SDS011;5200;43.236;27.986;2022-07-29T06:04:04;2.28;;;2.10;;
10309;SDS011;5200;43.236;27.986;2022-07-29T06:06:31;1.85;;;1.75;;
10309;SDS011;5200;43.236;27.986;2022-07-29T06:08:58;5.97;;;1.95;;
10309;SDS011;5200;43.236;27.986;2022-07-29T06:11:25;4.40;;;1.75;;
10309;SDS011;5200;43.236;27.986;2022-07-29T06:13:52;1.70;;;1.60;;
10309;SDS011;5200;43.236;27.986;2022-07-29T06:16:21;1.90;;;1.80;;
10309;SDS011;5200;43.236;27.986;2022-07-29T06:18:47;2.40;;;2.20;;
10309;SDS011;5200;43.236;27.986;2022-07-29T06:21:14;3.65;;;2.00;;
10309;SDS011;5200;43.236;27.986;2022-07-29T06:23:41;1.80;;;1.67;;
10309;SDS011;5200;43.236;27.986;2022-07-29T06:26:08;4.80;;;1.73;;
10309;SDS011;5200;43.236;27.986;2022-07-29T06:28:35;2.40;;;1.75;;
10309;SDS011;5200;43.236;27.986;2022-07-29T06:31:02;2.78;;;1.67;;
10309;SDS011;5200;43.236;27.986;2022-07-29T06:33:31;2.92;;;2.22;;
10309;SDS011;5200;43.236;27.986;2022-07-29T06:35:58;5.07;;;1.80;;
10309;SDS011;5200;43.236;27.986;2022-07-29T06:38:25;1.80;;;1.70;;
10309;SDS011;5200;43.236;27.986;2022-07-29T06:40:52;4.00;;;2.30;;
10309;SDS011;5200;43.236;27.986;2022-07-29T06:43:30;2.10;;;1.90;;
10309;SDS011;5200;43.236;27.986;2022-07-29T06:46:01;2.28;;;2.03;;
10309;SDS011;5200;43.236;27.986;2022-07-29T06:48:29;4.18;;;2.10;;
10309;SDS011;5200;43.236;27.986;2022-07-29T06:50:57;2.92;;;1.70;;
10309;SDS011;5200;43.236;27.986;2022-07-29T06:53:25;2.65;;;1.73;;
10309;SDS011;5200;43.236;27.986;2022-07-29T06:55:52;4.60;;;1.90;;
10309;SDS011;5200;43.236;27.986;2022-07-29T06:58:18;5.80;;;1.73;;
10309;SDS011;5200;43.236;27.986;2022-07-29T07:00:46;6.88;;;1.90;;
10309;SDS011;5200;43.236;27.986;2022-07-29T07:03:14;1.83;;;1.73;;
10309;SDS011;5200;43.236;27.986;2022-07-29T07:05:42;4.93;;;2.10;;
10309;SDS011;5200;43.236;27.986;2022-07-29T07:08:09;3.03;;;2.25;;
10309;SDS011;5200;43.236;27.986;2022-07-29T07:10:36;3.22;;;2.28;;
10309;SDS011;5200;43.236;27.986;2022-07-29T07:13:03;7.10;;;2.25;;
10309;SDS011;5200;43.236;27.986;2022-07-29T07:15:31;6.43;;;2.17;;
10309;SDS011;5200;43.236;27.986;2022-07-29T07:17:58;2.45;;;2.25;;
10309;SDS011;5200;43.236;27.986;2022-07-29T07:20:25;1.80;;;1.70;;
10309;SDS011;5200;43.236;27.986;2022-07-29T07:22:53;4.38;;;2.35;;
10309;SDS011;5200;43.236;27.986;2022-07-29T07:25:20;1.95;;;1.85;;
10309;SDS011;5200;43.236;27.986;2022-07-29T07:27:47;2.92;;;2.28;;
10309;SDS011;5200;43.236;27.986;2022-07-29T07:30:14;4.40;;;2.08;;
10309;SDS011;5200;43.236;27.986;2022-07-29T07:32:41;1.80;;;1.70;;
10309;SDS011;5200;43.236;27.986;2022-07-29T07:35:09;2.03;;;1.92;;
10309;SDS011;5200;43.236;27.986;2022-07-29T07:37:37;2.08;;;1.88;;
10309;SDS011;5200;43.236;27.986;2022-07-29T07:40:07;3.92;;;2.03;;
10309;SDS011;5200;43.236;27.986;2022-07-29T07:42:36;5.18;;;2.40;;
10309;SDS011;5200;43.236;27.986;2022-07-29T07:45:04;3.13;;;1.70;;
10309;SDS011;5200;43.236;27.986;2022-07-29T07:47:34;1.65;;;1.55;;
10309;SDS011;5200;43.236;27.986;2022-07-29T07:50:01;3.67;;;2.80;;
10309;SDS011;5200;43.236;27.986;2022-07-29T07:52:29;6.75;;;3.15;;
10309;SDS011;5200;43.236;27.986;2022-07-29T07:54:56;4.68;;;2.72;;
10309;SDS011;5200;43.236;27.986;2022-07-29T07:57:25;6.32;;;2.92;;
10309;SDS011;5200;43.236;27.986;2022-07-29T07:59:52;6.82;;;2.20;;
10309;SDS011;5200;43.236;27.986;2022-07-29T08:02:19;4.70;;;2.40;;
10309;SDS011;5200;43.236;27.986;2022-07-29T08:04:46;3.88;;;2.25;;
10309;SDS011;5200;43.236;27.986;2022-07-29T08:07:13;3.40;;;2.40;;
10309;SDS011;5200;43.236;27.986;2022-07-29T08:09:40;8.95;;;3.20;;
10309;SDS011;5200;43.236;27.986;2022-07-29T08:12:07;3.17;;;2.20;;
10309;SDS011;5200;43.236;27.986;2022-07-29T08:14:35;5.03;;;2.00;;
10309;SDS011;5200;43.236;27.986;2022-07-29T08:17:02;2.08;;;1.88;;
10309;SDS011;5200;43.236;27.986;2022-07-29T08:19:29;4.53;;;2.00;;
10309;SDS011;5200;43.236;27.986;2022-07-29T08:21:56;1.95;;;1.80;;
10309;SDS011;5200;43.236;27.986;2022-07-29T08:24:23;4.72;;;1.92;;
10309;SDS011;5200;43.236;27.986;2022-07-29T08:27:08;4.30;;;2.42;;
10309;SDS011;5200;43.236;27.986;2022-07-29T08:29:37;4.82;;;1.90;;
10309;SDS011;5200;43.236;27.986;2022-07-29T08:32:04;7.05;;;2.28;;
10309;SDS011;5200;43.236;27.986;2022-07-29T08:34:32;2.78;;;2.05;;
10309;SDS011;5200;43.236;27.986;2022-07-29T08:36:59;2.22;;;1.83;;
10309;SDS011;5200;43.236;27.986;2022-07-29T08:39:26;4.50;;;2.08;;
10309;SDS011;5200;43.236;27.986;2022-07-29T08:41:53;2.58;;;1.77;;
10309;SDS011;5200;43.236;27.986;2022-07-29T08:44:21;3.55;;;1.98;;
10309;SDS011;5200;43.236;27.986;2022-07-29T08:46:49;4.20;;;2.08;;
10309;SDS011;5200;43.236;27.986;2022-07-29T08:49:16;4.10;;;2.00;;
10309;SDS011;5200;43.236;27.986;2022-07-29T08:51:44;2.25;;;1.88;;
10309;SDS011;5200;43.236;27.986;2022-07-29T08:54:11;2.15;;;1.95;;
10309;SDS011;5200;43.236;27.986;2022-07-29T08:56:44;3.95;;;2.15;;
10309;SDS011;5200;43.236;27.986;2022-07-29T08:59:14;5.90;;;1.98;;
10309;SDS011;5200;43.236;27.986;2022-07-29T09:01:42;3.28;;;1.80;;
10309;SDS011;5200;43.236;27.986;2022-07-29T09:04:13;7.05;;;2.08;;
10309;SDS011;5200;43.236;27.986;2022-07-29T09:06:42;3.03;;;2.10;;
10309;SDS011;5200;43.236;27.986;2022-07-29T09:09:11;1.92;;;1.83;;
10309;SDS011;5200;43.236;27.986;2022-07-29T09:11:39;3.67;;;2.13;;
10309;SDS011;5200;43.236;27.986;2022-07-29T09:14:07;2.25;;;2.05;;
10309;SDS011;5200;43.236;27.986;2022-07-29T09:16:44;9.65;;;1.80;;
10309;SDS011;5200;43.236;27.986;2022-07-29T09:19:20;2.58;;;1.80;;
10309;SDS011;5200;43.236;27.986;2022-07-29T09:21:48;6.57;;;1.92;;
10309;SDS011;5200;43.236;27.986;2022-07-29T09:24:25;2.60;;;2.20;;
10309;SDS011;5200;43.236;27.986;2022-07-29T09:27:02;5.88;;;2.00;;
10309;SDS011;5200;43.236;27.986;2022-07-29T09:29:35;4.78;;;1.95;;
10309;SDS011;5200;43.236;27.986;2022-07-29T09:32:02;3.13;;;1.92;;
10309;SDS011;5200;43.236;27.986;2022-07-29T09:34:36;3.10;;;1.80;;
10309;SDS011;5200;43.236;27.986;2022-07-29T09:37:03;5.63;;;2.13;;
10309;SDS011;5200;43.236;27.986;2022-07-29T09:39:31;2.05;;;1.88;;
10309;SDS011;5200;43.236;27.986;2022-07-29T09:42:01;3.55;;;2.15;;
10309;SDS011;5200;43.236;27.986;2022-07-29T09:44:46;5.10;;;2.10;;
10309;SDS011;5200;43.236;27.986;2022-07-29T09:47:14;3.88;;;1.98;;
10309;SDS011;5200;43.236;27.986;2022-07-29T09:52:28;2.20;;;1.80;;
10309;SDS011;5200;43.236;27.986;2022-07-29T09:55:04;3.33;;;1.75;;
10309;SDS011;5200;43.236;27.986;2022-07-29T09:57:31;4.78;;;1.75;;
10309;SDS011;5200;43.236;27.986;2022-07-29T09:59:58;4.03;;;1.90;;
10309;SDS011;5200;43.236;27.986;2022-07-29T10:02:30;1.98;;;1.73;;
10309;SDS011;5200;43.236;27.986;2022-07-29T10:04:58;4.97;;;1.85;;
10309;SDS011;5200;43.236;27.986;2022-07-29T10:07:42;2.38;;;1.70;;
10309;SDS011;5200;43.236;27.986;2022-07-29T10:10:11;3.35;;;1.90;;
10309;SDS011;5200;43.236;27.986;2022-07-29T10:12:48;3.55;;;1.70;;
10309;SDS011;5200;43.236;27.986;2022-07-29T10:15:16;4.68;;;1.85;;
10309;SDS011;5200;43.236;27.986;2022-07-29T10:17:44;2.00;;;1.77;;
10309;SDS011;5200;43.236;27.986;2022-07-29T10:20:13;2.05;;;1.85;;
10309;SDS011;5200;43.236;27.986;2022-07-29T10:22:40;3.17;;;1.92;;
10309;SDS011;5200;43.236;27.986;2022-07-29T10:25:09;2.45;;;1.90;;
10309;SDS011;5200;43.236;27.986;2022-07-29T10:27:36;3.03;;;1.67;;
10309;SDS011;5200;43.236;27.986;2022-07-29T10:30:04;3.55;;;2.17;;
10309;SDS011;5200;43.236;27.986;2022-07-29T10:32:38;6.35;;;1.63;;
10309;SDS011;5200;43.236;27.986;2022-07-29T10:35:21;2.20;;;1.90;;
10309;SDS011;5200;43.236;27.986;2022-07-29T10:38:04;2.00;;;1.90;;
10309;SDS011;5200;43.236;27.986;2022-07-29T10:40:43;2.10;;;1.90;;
10309;SDS011;5200;43.236;27.986;2022-07-29T10:43:35;6.68;;;1.77;;
10309;SDS011;5200;43.236;27.986;2022-07-29T10:46:07;2.00;;;1.80;;
10309;SDS011;5200;43.236;27.986;2022-07-29T10:48:34;3.85;;;2.30;;
10309;SDS011;5200;43.236;27.986;2022-07-29T10:51:04;6.15;;;2.40;;
10309;SDS011;5200;43.236;27.986;2022-07-29T10:53:46;2.30;;;1.88;;
10309;SDS011;5200;43.236;27.986;2022-07-29T10:56:24;4.63;;;2.30;;
10309;SDS011;5200;43.236;27.986;2022-07-29T11:01:51;2.20;;;2.00;;
10309;SDS011;5200;43.236;27.986;2022-07-29T11:07:29;2.00;;;1.80;;
10309;SDS011;5200;43.236;27.986;2022-07-29T11:12:48;2.00;;;1.70;;
10309;SDS011;5200;43.236;27.986;2022-07-29T11:15:17;3.10;;;2.10;;
10309;SDS011;5200;43.236;27.986;2022-07-29T11:18:05;3.15;;;2.25;;
10309;SDS011;5200;43.236;27.986;2022-07-29T11:20:36;4.00;;;1.95;;
10309;SDS011;5200;43.236;27.986;2022-07-29T11:23:23;4.45;;;1.92;;
10309;SDS011;5200;43.236;27.986;2022-07-29T11:28:57;2.38;;;1.70;;
10309;SDS011;5200;43.236;27.986;2022-07-29T11:31:37;3.90;;;1.98;;
10309;SDS011;5200;43.236;27.986;2022-07-29T11:34:16;3.95;;;2.10;;
10309;SDS011;5200;43.236;27.986;2022-07-29T11:39:42;2.90;;;2.28;;
10309;SDS011;5200;43.236;27.986;2022-07-29T11:45:04;2.70;;;2.10;;
10309;SDS011;5200;43.236;27.986;2022-07-29T11:47:33;4.80;;;2.10;;
10309;SDS011;5200;43.236;27.986;2022-07-29T11:50:01;5.13;;;2.53;;
10309;SDS011;5200;43.236;27.986;2022-07-29T11:52:32;6.80;;;1.83;;
10309;SDS011;5200;43.236;27.986;2022-07-29T11:55:04;2.40;;;2.20;;
10309;SDS011;5200;43.236;27.986;2022-07-29T11:57:33;4.03;;;2.00;;
10309;SDS011;5200;43.236;27.986;2022-07-29T12:00:02;2.58;;;1.90;;
10309;SDS011;5200;43.236;27.986;2022-07-29T12:02:38;2.28;;;1.88;;
10309;SDS011;5200;43.236;27.986;2022-07-29T12:05:07;5.03;;;2.05;;
10309;SDS011;5200;43.236;27.986;2022-07-29T12:07:35;2.83;;;1.80;;
10309;SDS011;5200;43.236;27.986;2022-07-29T12:10:05;1.88;;;1.75;;
10309;SDS011;5200;43.236;27.986;2022-07-29T12:12:32;2.88;;;2.17;;
10309;SDS011;5200;43.236;27.986;2022-07-29T12:15:10;2.70;;;2.50;;
10309;SDS011;5200;43.236;27.986;2022-07-29T12:17:43;4.93;;;2.28;;
10309;SDS011;5200;43.236;27.986;2022-07-29T12:20:12;2.28;;;1.90;;
10309;SDS011;5200;43.236;27.986;2022-07-29T12:22:42;3.33;;;1.85;;
10309;SDS011;5200;43.236;27.986;2022-07-29T12:25:11;4.32;;;1.90;;
10309;SDS011;5200;43.236;27.986;2022-07-29T12:27:40;6.75;;;2.20;;
10309;SDS011;5200;43.236;27.986;2022-07-29T12:30:10;2.90;;;1.88;;
10309;SDS011;5200;43.236;27.986;2022-07-29T12:32:41;6.60;;;2.28;;
10309;SDS011;5200;43.236;27.986;2022-07-29T12:35:09;3.47;;;2.17;;
10309;SDS011;5200;43.236;27.986;2022-07-29T12:37:39;2.38;;;2.17;;
10309;SDS011;5200;43.236;27.986;2022-07-29T12:40:08;5.07;;;2.25;;
10309;SDS011;5200;43.236;27.986;2022-07-29T12:42:37;6.30;;;2.08;;
10309;SDS011;5200;43.236;27.986;2022-07-29T12:45:05;4.10;;;1.90;;
10309;SDS011;5200;43.236;27.986;2022-07-29T12:47:33;3.17;;;1.88;;
10309;SDS011;5200;43.236;27.986;2022-07-29T12:50:16;2.15;;;2.00;;
10309;SDS011;5200;43.236;27.986;2022-07-29T12:52:44;3.15;;;2.22;;
10309;SDS011;5200;43.236;27.986;2022-07-29T12:55:12;2.85;;;1.80;;
10309;SDS011;5200;43.236;27.986;2022-07-29T12:57:47;5.95;;;2.05;;
10309;SDS011;5200;43.236;27.986;2022-07-29T13:00:16;3.28;;;1.90;;
10309;SDS011;5200;43.236;27.986;2022-07-29T13:02:54;2.05;;;1.85;;
10309;SDS011;5200;43.236;27.986;2022-07-29T13:05:21;3.15;;;1.80;;
10309;SDS011;5200;43.236;27.986;2022-07-29T13:07:49;2.35;;;1.70;;
10309;SDS011;5200;43.236;27.986;2022-07-29T13:10:17;4.53;;;1.77;;
10309;SDS011;5200;43.236;27.986;2022-07-29T13:15:33;3.47;;;1.83;;
10309;SDS011;5200;43.236;27.986;2022-07-29T13:18:00;3.15;;;2.20;;
10309;SDS011;5200;43.236;27.986;2022-07-29T13:20:28;1.92;;;1.80;;
10309;SDS011;5200;43.236;27.986;2022-07-29T13:22:56;2.63;;;1.90;;
10309;SDS011;5200;43.236;27.986;2022-07-29T13:25:24;2.70;;;2.50;;
10309;SDS011;5200;43.236;27.986;2022-07-29T13:27:51;2.75;;;2.22;;
10309;SDS011;5200;43.236;27.986;2022-07-29T13:30:21;2.13;;;1.75;;
10309;SDS011;5200;43.236;27.986;2022-07-29T13:32:48;2.22;;;2.03;;
10309;SDS011;5200;43.236;27.986;2022-07-29T13:35:16;4.55;;;1.80;;
10309;SDS011;5200;43.236;27.986;2022-07-29T13:37:43;5.03;;;2.47;;
10309;SDS011;5200;43.236;27.986;2022-07-29T13:40:10;3.78;;;1.80;;
10309;SDS011;5200;43.236;27.986;2022-07-29T13:42:38;4.43;;;2.10;;
10309;SDS011;5200;43.236;27.986;2022-07-29T13:45:08;4.35;;;2.45;;
10309;SDS011;5200;43.236;27.986;2022-07-29T13:47:37;3.13;;;2.15;;
10309;SDS011;5200;43.236;27.986;2022-07-29T13:50:05;5.10;;;1.85;;
10309;SDS011;5200;43.236;27.986;2022-07-29T13:52:35;3.05;;;2.53;;
10309;SDS011;5200;43.236;27.986;2022-07-29T13:55:03;5.18;;;2.35;;
10309;SDS011;5200;43.236;27.986;2022-07-29T13:57:30;4.95;;;2.55;;
10309;SDS011;5200;43.236;27.986;2022-07-29T13:59:57;4.10;;;1.98;;
10309;SDS011;5200;43.236;27.986;2022-07-29T14:02:24;2.72;;;2.53;;
10309;SDS011;5200;43.236;27.986;2022-07-29T14:04:53;2.88;;;2.67;;
10309;SDS011;5200;43.236;27.986;2022-07-29T14:07:20;2.92;;;2.63;;
10309;SDS011;5200;43.236;27.986;2022-07-29T14:09:47;3.17;;;2.88;;
10309;SDS011;5200;43.236;27.986;2022-07-29T14:12:15;7.70;;;2.95;;
10309;SDS011;5200;43.236;27.986;2022-07-29T14:14:42;2.80;;;2.60;;
10309;SDS011;5200;43.236;27.986;2022-07-29T14:17:09;4.47;;;2.83;;
10309;SDS011;5200;43.236;27.986;2022-07-29T14:19:36;3.03;;;2.83;;
10309;SDS011;5200;43.236;27.986;2022-07-29T14:22:05;4.47;;;2.75;;
10309;SDS011;5200;43.236;27.986;2022-07-29T14:24:33;4.05;;;2.65;;
10309;SDS011;5200;43.236;27.986;2022-07-29T14:27:00;3.17;;;2.85;;
10309;SDS011;5200;43.236;27.986;2022-07-29T14:29:27;4.97;;;2.53;;
10309;SDS011;5200;43.236;27.986;2022-07-29T14:31:54;4.35;;;3.00;;
10309;SDS011;5200;43.236;27.986;2022-07-29T14:34:21;3.33;;;3.00;;
10309;SDS011;5200;43.236;27.986;2022-07-29T14:36:48;8.25;;;2.65;;
10309;SDS011;5200;43.236;27.986;2022-07-29T14:39:17;2.63;;;2.42;;
10309;SDS011;5200;43.236;27.986;2022-07-29T14:41:43;6.10;;;3.08;;
10309;SDS011;5200;43.236;27.986;2022-07-29T14:44:10;3.08;;;2.80;;
10309;SDS011;5200;43.236;27.986;2022-07-29T14:46:38;6.18;;;2.88;;
10309;SDS011;5200;43.236;27.986;2022-07-29T14:49:05;5.55;;;2.50;;
10309;SDS011;5200;43.236;27.986;2022-07-29T14:51:32;3.78;;;2.50;;
10309;SDS011;5200;43.236;27.986;2022-07-29T14:53:59;3.95;;;2.80;;
10309;SDS011;5200;43.236;27.986;2022-07-29T14:56:27;3.63;;;3.03;;
10309;SDS011;5200;43.236;27.986;2022-07-29T14:58:55;3.53;;;2.83;;
10309;SDS011;5200;43.236;27.986;2022-07-29T15:01:23;4.05;;;2.88;;
10309;SDS011;5200;43.236;27.986;2022-07-29T15:03:50;5.57;;;3.00;;
10309;SDS011;5200;43.236;27.986;2022-07-29T15:06:17;5.20;;;3.88;;
10309;SDS011;5200;43.236;27.986;2022-07-29T15:08:44;3.83;;;3.10;;
10309;SDS011;5200;43.236;27.986;2022-07-29T15:11:11;5.68;;;3.40;;
10309;SDS011;5200;43.236;27.986;2022-07-29T15:13:39;3.05;;;2.80;;
10309;SDS011;5200;43.236;27.986;2022-07-29T15:16:06;5.53;;;3.00;;
10309;SDS011;5200;43.236;27.986;2022-07-29T15:18:34;3.97;;;3.42;;
10309;SDS011;5200;43.236;27.986;2022-07-29T15:21:03;3.72;;;3.40;;
10309;SDS011;5200;43.236;27.986;2022-07-29T15:23:31;5.35;;;3.03;;
10309;SDS011;5200;43.236;27.986;2022-07-29T15:26:00;3.60;;;3.17;;